createdAt,value
2019-02-18T00:00:29.918Z,4.43
2019-02-18T00:03:03.457Z,4.43
2019-02-18T00:05:36.871Z,4.40
2019-02-18T00:08:10.471Z,4.40
2019-02-18T00:10:43.799Z,4.39
2019-02-18T00:13:17.196Z,4.38
2019-02-18T00:15:50.741Z,4.38
2019-02-18T00:18:24.136Z,4.36
2019-02-18T00:20:57.469Z,4.35
2019-02-18T00:23:31.088Z,4.33
2019-02-18T00:26:04.508Z,4.31
2019-02-18T00:28:37.854Z,4.30
2019-02-18T00:31:11.308Z,4.27
2019-02-18T00:33:44.729Z,4.27
2019-02-18T00:36:18.168Z,4.27
2019-02-18T00:38:51.627Z,4.26
2019-02-18T00:41:25.117Z,4.21
2019-02-18T00:43:58.480Z,4.14
2019-02-18T00:46:31.878Z,4.17
2019-02-18T00:49:05.251Z,4.17
2019-02-18T00:51:38.644Z,4.12
2019-02-18T00:54:12.000Z,4.10
2019-02-18T00:56:45.393Z,4.11
2019-02-18T00:59:18.732Z,4.14
2019-02-18T01:01:52.099Z,4.19
2019-02-18T01:04:25.459Z,4.20
2019-02-18T01:06:58.839Z,4.20
2019-02-18T01:09:32.175Z,4.21
2019-02-18T01:12:05.537Z,4.18
2019-02-18T01:14:38.925Z,4.17
2019-02-18T01:17:12.358Z,4.18
2019-02-18T01:19:45.748Z,4.15
2019-02-18T01:22:19.114Z,4.09
2019-02-18T01:24:52.455Z,3.95
2019-02-18T01:27:25.807Z,3.97
2019-02-18T01:29:59.147Z,4.02
2019-02-18T01:32:32.525Z,4.07
2019-02-18T01:35:06.243Z,4.11
2019-02-18T01:37:45.870Z,4.13
2019-02-18T01:40:15.246Z,4.15
2019-02-18T01:42:48.603Z,4.16
2019-02-18T01:45:21.930Z,4.15
2019-02-18T01:47:55.354Z,4.16
2019-02-18T01:50:28.686Z,4.11
2019-02-18T01:53:02.037Z,4.14
2019-02-18T01:55:35.377Z,4.14
2019-02-18T01:58:08.771Z,4.14
2019-02-18T02:00:42.186Z,4.14
2019-02-18T02:03:15.554Z,4.13
2019-02-18T02:05:48.957Z,4.11
2019-02-18T02:08:22.311Z,4.09
2019-02-18T02:10:55.647Z,4.07
2019-02-18T02:13:31.531Z,4.07
2019-02-18T02:16:06.880Z,4.06
2019-02-18T02:18:40.245Z,4.06
2019-02-18T02:21:13.577Z,4.05
2019-02-18T02:23:47.008Z,4.04
2019-02-18T02:26:20.330Z,4.00
2019-02-18T02:28:53.698Z,3.95
2019-02-18T02:31:27.153Z,3.92
2019-02-18T02:34:00.514Z,3.95
2019-02-18T02:36:33.870Z,3.98
2019-02-18T02:39:07.302Z,3.98
2019-02-18T02:41:40.626Z,3.98
2019-02-18T02:44:14.052Z,4.00
2019-02-18T02:46:47.393Z,3.89
2019-02-18T02:49:20.831Z,3.89
2019-02-18T02:51:54.269Z,3.87
2019-02-18T02:54:27.718Z,3.88
2019-02-18T02:57:01.139Z,3.90
2019-02-18T02:59:34.577Z,3.96
2019-02-18T03:02:08.051Z,3.95
2019-02-18T03:04:41.594Z,3.97
2019-02-18T03:07:15.098Z,3.98
2019-02-18T03:09:50.640Z,3.99
2019-02-18T03:12:24.092Z,4.00
2019-02-18T03:14:57.568Z,3.98
2019-02-18T03:17:30.993Z,3.98
2019-02-18T03:20:06.767Z,3.96
2019-02-18T03:22:40.246Z,3.96
2019-02-18T03:25:21.094Z,3.94
2019-02-18T03:28:06.689Z,3.95
2019-02-18T03:30:49.450Z,3.95
2019-02-18T03:33:34.787Z,3.93
2019-02-18T03:36:08.279Z,3.94
2019-02-18T03:38:41.703Z,3.93
2019-02-18T03:41:15.177Z,3.92
2019-02-18T03:43:48.568Z,3.90
2019-02-18T03:46:22.072Z,3.88
2019-02-18T03:48:55.468Z,3.89
2019-02-18T03:51:28.901Z,3.87
2019-02-18T03:54:02.384Z,3.85
2019-02-18T03:56:35.916Z,3.81
2019-02-18T03:59:09.389Z,3.81
2019-02-18T04:01:42.853Z,3.79
2019-02-18T04:04:16.445Z,3.77
2019-02-18T04:06:50.010Z,3.75
2019-02-18T04:09:23.495Z,3.72
2019-02-18T04:11:56.850Z,3.70
2019-02-18T04:14:30.429Z,3.69
2019-02-18T04:17:03.925Z,3.69
2019-02-18T04:19:37.428Z,3.69
2019-02-18T04:22:10.914Z,3.70
2019-02-18T04:24:44.743Z,3.70
2019-02-18T04:27:18.116Z,3.69
2019-02-18T04:29:51.492Z,3.68
2019-02-18T04:32:24.966Z,3.68
2019-02-18T04:34:58.381Z,3.69
2019-02-18T04:37:31.836Z,3.67
2019-02-18T04:40:07.220Z,3.67
2019-02-18T04:42:40.618Z,3.67
2019-02-18T04:45:14.049Z,3.65
2019-02-18T04:47:47.517Z,3.64
2019-02-18T04:50:20.880Z,3.65
2019-02-18T04:52:54.337Z,3.60
2019-02-18T04:55:27.785Z,3.58
2019-02-18T04:58:01.250Z,3.58
2019-02-18T05:00:34.751Z,3.58
2019-02-18T05:03:08.216Z,3.55
2019-02-18T05:05:41.739Z,3.51
2019-02-18T05:08:15.152Z,3.44
2019-02-18T05:10:48.541Z,3.43
2019-02-18T05:13:21.952Z,3.43
2019-02-18T05:15:55.375Z,3.41
2019-02-18T05:18:28.951Z,3.42
2019-02-18T05:21:02.300Z,3.44
2019-02-18T05:23:35.791Z,3.43
2019-02-18T05:26:09.153Z,3.43
2019-02-18T05:28:42.693Z,3.45
2019-02-18T05:31:16.055Z,3.45
2019-02-18T05:33:49.574Z,3.43
2019-02-18T05:36:23.054Z,3.42
2019-02-18T05:38:56.496Z,3.40
2019-02-18T05:41:31.195Z,3.38
2019-02-18T05:44:05.071Z,3.39
2019-02-18T05:46:38.548Z,3.40
2019-02-18T05:49:11.963Z,3.39
2019-02-18T05:51:45.451Z,3.38
2019-02-18T05:54:18.802Z,3.37
2019-02-18T05:56:52.344Z,3.35
2019-02-18T05:59:25.765Z,3.36
2019-02-18T06:01:59.216Z,3.37
2019-02-18T06:04:32.639Z,3.35
2019-02-18T06:07:06.090Z,3.33
2019-02-18T06:09:39.582Z,3.31
2019-02-18T06:12:13.171Z,3.27
2019-02-18T06:14:46.622Z,3.25
2019-02-18T06:17:19.998Z,3.24
2019-02-18T06:19:53.562Z,3.25
2019-02-18T06:22:27.023Z,3.24
2019-02-18T06:25:00.575Z,3.19
2019-02-18T06:27:34.040Z,3.18
2019-02-18T06:30:10.204Z,3.19
2019-02-18T06:32:43.721Z,3.20
2019-02-18T06:35:17.165Z,3.23
2019-02-18T06:37:50.699Z,3.23
2019-02-18T06:40:24.128Z,3.26
2019-02-18T06:42:57.689Z,3.28
2019-02-18T06:45:35.829Z,3.31
2019-02-18T06:48:13.625Z,3.31
2019-02-18T06:50:47.045Z,3.31
2019-02-18T06:53:20.461Z,3.31
2019-02-18T06:55:53.890Z,3.30
2019-02-18T06:58:32.083Z,3.28
2019-02-18T07:01:07.148Z,3.22
2019-02-18T07:03:44.697Z,3.21
2019-02-18T07:06:25.422Z,3.25
2019-02-18T07:11:50.304Z,3.37
2019-02-18T07:14:23.693Z,3.40
2019-02-18T07:16:57.078Z,3.42
2019-02-18T07:19:30.690Z,3.50
2019-02-18T07:22:04.287Z,3.58
2019-02-18T07:24:37.693Z,3.65
2019-02-18T07:27:11.239Z,3.69
2019-02-18T07:29:44.689Z,3.74
2019-02-18T07:32:18.157Z,3.85
2019-02-18T07:34:51.685Z,3.95
2019-02-18T07:37:25.198Z,4.06
2019-02-18T07:40:01.580Z,4.17
2019-02-18T07:42:33.859Z,4.23
2019-02-18T07:45:09.487Z,4.31
2019-02-18T07:47:42.912Z,4.40
2019-02-18T07:50:20.618Z,4.52
2019-02-18T07:52:51.503Z,4.63
2019-02-18T07:55:24.861Z,4.71
2019-02-18T07:57:58.322Z,4.88
2019-02-18T08:00:32.227Z,5.07
2019-02-18T08:03:05.676Z,5.21
2019-02-18T08:05:39.145Z,5.39
2019-02-18T08:08:12.543Z,5.60
2019-02-18T08:10:46.009Z,5.78
2019-02-18T08:13:19.634Z,6.01
2019-02-18T08:15:53.085Z,6.29
2019-02-18T08:18:26.619Z,6.52
2019-02-18T08:21:00.031Z,6.64
2019-02-18T08:23:33.515Z,6.74
2019-02-18T08:26:07.110Z,6.80
2019-02-18T08:28:40.576Z,6.92
2019-02-18T08:31:14.070Z,7.10
2019-02-18T08:33:47.540Z,7.30
2019-02-18T08:36:22.970Z,7.55
2019-02-18T08:38:56.166Z,7.80
2019-02-18T08:41:29.601Z,7.99
2019-02-18T08:44:03.129Z,8.10
2019-02-18T08:46:36.567Z,8.22
2019-02-18T08:49:10.045Z,8.31
2019-02-18T08:51:43.408Z,8.43
2019-02-18T08:54:16.822Z,8.55
2019-02-18T08:56:50.305Z,8.73
2019-02-18T08:59:23.874Z,8.90
2019-02-18T09:01:57.355Z,9.17
2019-02-18T09:04:30.811Z,9.48
2019-02-18T09:07:04.294Z,9.96
2019-02-18T09:09:37.693Z,10.38
2019-02-18T09:12:11.104Z,10.87
2019-02-18T09:14:44.603Z,11.27
2019-02-18T09:17:18.231Z,11.63
2019-02-18T09:19:53.375Z,12.17
2019-02-18T09:22:44.533Z,12.74
2019-02-18T09:25:22.120Z,13.26
2019-02-18T09:27:55.685Z,13.59
2019-02-18T09:30:30.701Z,14.07
2019-02-18T09:33:04.442Z,14.30
2019-02-18T09:35:37.895Z,14.26
2019-02-18T09:38:11.447Z,14.01
2019-02-18T09:40:50.561Z,14.29
2019-02-18T09:43:20.217Z,14.51
2019-02-18T09:45:53.701Z,15.01
2019-02-18T09:48:27.246Z,15.72
2019-02-18T09:51:00.884Z,16.80
2019-02-18T09:53:34.420Z,17.03
2019-02-18T09:56:08.010Z,16.77
2019-02-18T09:58:41.493Z,16.30
2019-02-18T10:01:14.990Z,15.85
2019-02-18T10:03:48.550Z,15.46
2019-02-18T10:06:22.049Z,15.18
2019-02-18T10:08:55.524Z,14.99
2019-02-18T10:11:29.005Z,14.68
2019-02-18T10:14:02.503Z,14.66
2019-02-18T10:16:35.939Z,14.63
2019-02-18T10:19:09.389Z,14.62
2019-02-18T10:21:42.953Z,14.62
2019-02-18T10:24:16.753Z,14.51
2019-02-18T10:26:50.288Z,14.57
2019-02-18T10:29:23.813Z,14.54
2019-02-18T10:31:57.319Z,14.54
2019-02-18T10:34:30.837Z,14.63
2019-02-18T10:37:04.441Z,14.80
2019-02-18T10:39:37.853Z,14.93
2019-02-18T10:42:11.290Z,15.18
2019-02-18T10:44:44.785Z,15.33
2019-02-18T10:47:18.245Z,15.55
2019-02-18T10:49:51.744Z,15.96
2019-02-18T10:52:25.306Z,16.06
2019-02-18T10:54:58.765Z,15.94
2019-02-18T10:57:32.360Z,16.01
2019-02-18T11:00:17.633Z,16.03
2019-02-18T11:02:51.135Z,16.16
2019-02-18T11:05:24.672Z,16.86
2019-02-18T11:07:58.183Z,16.92
2019-02-18T11:10:32.145Z,16.65
2019-02-18T11:13:05.519Z,16.63
2019-02-18T11:15:39.031Z,16.55
2019-02-18T11:18:12.556Z,16.60
2019-02-18T11:20:45.950Z,16.61
2019-02-18T11:23:19.441Z,16.56
2019-02-18T11:25:53.156Z,16.70
2019-02-18T11:28:26.619Z,16.73
2019-02-18T11:31:00.303Z,16.76
2019-02-18T11:33:33.846Z,16.72
2019-02-18T11:36:07.542Z,16.72
2019-02-18T11:38:40.993Z,16.87
2019-02-18T11:41:14.561Z,17.01
2019-02-18T11:43:48.120Z,17.30
2019-02-18T11:46:22.146Z,17.35
2019-02-18T11:48:55.635Z,18.05
2019-02-18T11:51:29.270Z,19.02
2019-02-18T11:54:02.781Z,20.08
2019-02-18T11:56:36.350Z,21.04
2019-02-18T11:59:09.879Z,21.49
2019-02-18T12:01:43.450Z,21.46
2019-02-18T12:04:16.881Z,21.08
2019-02-18T12:06:50.415Z,20.62
2019-02-18T12:09:23.880Z,20.20
2019-02-18T12:11:57.394Z,20.03
2019-02-18T12:14:30.867Z,19.51
2019-02-18T12:17:04.389Z,19.36
2019-02-18T12:19:37.845Z,19.48
2019-02-18T12:22:12.077Z,19.41
2019-02-18T12:24:45.741Z,19.42
2019-02-18T12:27:19.257Z,20.14
2019-02-18T12:29:53.406Z,21.02
2019-02-18T12:32:27.117Z,22.11
2019-02-18T12:35:00.664Z,23.73
2019-02-18T12:37:34.219Z,25.06
2019-02-18T12:40:11.970Z,25.06
2019-02-18T12:42:45.414Z,24.42
2019-02-18T12:45:18.958Z,23.30
2019-02-18T12:47:52.469Z,22.45
2019-02-18T12:50:26.044Z,21.80
2019-02-18T12:52:59.983Z,21.33
2019-02-18T12:55:33.806Z,20.76
2019-02-18T12:58:07.565Z,20.21
2019-02-18T13:00:41.181Z,20.02
2019-02-18T13:03:14.611Z,19.93
2019-02-18T13:05:48.455Z,19.83
2019-02-18T13:08:21.836Z,19.77
2019-02-18T13:10:55.417Z,19.69
2019-02-18T13:13:31.345Z,19.22
2019-02-18T13:16:04.204Z,19.08
2019-02-18T13:18:38.090Z,18.91
2019-02-18T13:21:11.655Z,18.81
2019-02-18T13:23:45.196Z,18.74
2019-02-18T13:26:18.665Z,18.63
2019-02-18T13:28:52.136Z,18.54
2019-02-18T13:31:25.625Z,18.50
2019-02-18T13:33:59.086Z,18.40
2019-02-18T13:36:32.619Z,18.37
2019-02-18T13:39:06.248Z,18.38
2019-02-18T13:41:40.218Z,18.38
2019-02-18T13:44:13.692Z,18.29
2019-02-18T13:46:47.112Z,18.27
2019-02-18T13:49:20.628Z,18.24
2019-02-18T13:51:56.519Z,18.09
2019-02-18T13:54:29.347Z,18.07
2019-02-18T13:57:09.774Z,18.06
2019-02-18T13:59:37.982Z,18.00
2019-02-18T14:02:11.646Z,18.04
2019-02-18T14:04:45.089Z,18.12
2019-02-18T14:07:18.580Z,18.00
2019-02-18T14:09:52.162Z,17.92
2019-02-18T14:12:25.668Z,17.88
2019-02-18T14:14:59.571Z,17.81
2019-02-18T14:17:33.030Z,17.82
2019-02-18T14:20:11.597Z,17.84
2019-02-18T14:22:45.161Z,17.54
2019-02-18T14:25:19.061Z,17.63
2019-02-18T14:27:52.605Z,17.65
2019-02-18T14:30:26.169Z,17.61
2019-02-18T14:32:59.756Z,17.69
2019-02-18T14:35:33.215Z,17.67
2019-02-18T14:38:06.753Z,17.73
2019-02-18T14:40:40.353Z,17.61
2019-02-18T14:43:13.846Z,17.62
2019-02-18T14:45:47.292Z,17.61
2019-02-18T14:48:20.825Z,17.68
2019-02-18T14:50:56.779Z,17.52
2019-02-18T14:53:29.558Z,17.59
2019-02-18T14:56:03.569Z,17.56
2019-02-18T14:58:37.382Z,17.52
2019-02-18T15:01:10.985Z,17.40
2019-02-18T15:03:44.448Z,17.41
2019-02-18T15:06:18.028Z,17.37
2019-02-18T15:08:51.468Z,17.37
2019-02-18T15:11:24.884Z,17.26
2019-02-18T15:13:58.470Z,17.20
2019-02-18T15:16:31.939Z,17.21
2019-02-18T15:19:05.557Z,17.20
2019-02-18T15:21:39.095Z,17.17
2019-02-18T15:24:12.535Z,17.13
2019-02-18T15:26:46.082Z,17.11
2019-02-18T15:29:19.609Z,17.01
2019-02-18T15:31:53.460Z,16.89
2019-02-18T15:34:27.055Z,16.81
2019-02-18T15:37:00.512Z,16.76
2019-02-18T15:39:33.958Z,16.69
2019-02-18T15:42:07.446Z,16.65
2019-02-18T15:44:41.039Z,16.63
2019-02-18T15:47:14.661Z,16.62
2019-02-18T15:49:48.134Z,16.61
2019-02-18T15:52:21.806Z,16.58
2019-02-18T15:54:55.301Z,16.54
2019-02-18T15:57:28.881Z,16.47
2019-02-18T16:00:02.382Z,16.41
2019-02-18T16:02:35.920Z,16.30
2019-02-18T16:05:09.859Z,16.21
2019-02-18T16:07:43.438Z,16.12
2019-02-18T16:10:16.938Z,15.99
2019-02-18T16:12:51.170Z,15.87
2019-02-18T16:15:24.752Z,15.72
2019-02-18T16:17:58.284Z,15.55
2019-02-18T16:20:31.808Z,15.37
2019-02-18T16:23:05.298Z,15.24
2019-02-18T16:25:38.901Z,15.16
2019-02-18T16:28:12.744Z,15.04
2019-02-18T16:30:46.200Z,14.90
2019-02-18T16:33:19.781Z,14.76
2019-02-18T16:35:53.445Z,14.61
2019-02-18T16:38:27.004Z,14.50
2019-02-18T16:41:00.461Z,14.35
2019-02-18T16:43:34.297Z,14.18
2019-02-18T16:46:07.815Z,14.02
2019-02-18T16:48:41.695Z,13.81
2019-02-18T16:51:15.212Z,13.60
2019-02-18T16:53:48.694Z,13.48
2019-02-18T16:56:22.239Z,13.41
2019-02-18T16:58:55.742Z,13.30
2019-02-18T17:01:29.346Z,13.18
2019-02-18T17:04:02.962Z,13.06
2019-02-18T17:06:36.489Z,12.93
2019-02-18T17:09:12.984Z,12.80
2019-02-18T17:11:46.689Z,12.68
2019-02-18T17:14:20.138Z,12.56
2019-02-18T17:16:55.089Z,12.44
2019-02-18T17:19:28.608Z,12.29
2019-02-18T17:22:02.092Z,12.12
2019-02-18T17:24:35.617Z,11.97
2019-02-18T17:27:09.091Z,11.90
2019-02-18T17:29:42.630Z,11.80
2019-02-18T17:32:16.127Z,11.71
2019-02-18T17:34:49.560Z,11.61
2019-02-18T17:37:23.100Z,11.53
2019-02-18T17:39:56.650Z,11.43
2019-02-18T17:42:30.274Z,11.31
2019-02-18T17:45:04.848Z,11.19
2019-02-18T17:47:38.626Z,11.07
2019-02-18T17:50:14.726Z,10.93
2019-02-18T17:52:48.227Z,10.81
2019-02-18T17:55:21.822Z,10.70
2019-02-18T17:57:55.371Z,10.59
2019-02-18T18:00:30.461Z,10.49
2019-02-18T18:03:03.997Z,10.42
2019-02-18T18:05:37.420Z,10.35
2019-02-18T18:08:10.949Z,10.28
2019-02-18T18:10:44.395Z,10.18
2019-02-18T18:13:24.965Z,10.09
2019-02-18T18:15:53.206Z,10.00
2019-02-18T18:18:26.852Z,9.91
2019-02-18T18:21:00.341Z,9.86
2019-02-18T18:23:34.125Z,9.75
2019-02-18T18:26:07.554Z,9.66
2019-02-18T18:28:41.230Z,9.59
2019-02-18T18:31:14.673Z,9.49
2019-02-18T18:33:48.258Z,9.44
2019-02-18T18:36:21.687Z,9.35
2019-02-18T18:38:55.218Z,9.21
2019-02-18T18:41:28.666Z,9.15
2019-02-18T18:44:02.083Z,9.05
2019-02-18T18:46:35.538Z,8.98
2019-02-18T18:49:08.937Z,8.95
2019-02-18T18:51:42.777Z,8.92
2019-02-18T18:54:16.326Z,8.87
2019-02-18T18:56:49.808Z,8.81
2019-02-18T18:59:23.384Z,8.75
2019-02-18T19:01:59.363Z,8.67
2019-02-18T19:04:32.894Z,8.57
2019-02-18T19:07:06.785Z,8.49
2019-02-18T19:09:40.328Z,8.45
2019-02-18T19:12:14.184Z,8.39
2019-02-18T19:14:47.710Z,8.32
2019-02-18T19:17:21.259Z,8.23
2019-02-18T19:19:57.821Z,8.12
2019-02-18T19:22:30.373Z,8.12
2019-02-18T19:25:04.224Z,8.04
2019-02-18T19:27:37.771Z,7.99
2019-02-18T19:30:34.253Z,7.97
2019-02-18T19:33:07.796Z,7.88
2019-02-18T19:35:41.405Z,7.79
2019-02-18T19:38:14.916Z,7.77
2019-02-18T19:40:48.568Z,7.71
2019-02-18T19:43:22.029Z,7.71
2019-02-18T19:45:55.720Z,7.69
2019-02-18T19:48:29.217Z,7.62
2019-02-18T19:51:02.798Z,7.61
2019-02-18T19:53:36.362Z,7.56
2019-02-18T19:56:09.794Z,7.50
2019-02-18T19:58:43.318Z,7.50
2019-02-18T20:01:16.762Z,7.47
2019-02-18T20:03:52.054Z,7.41
2019-02-18T20:06:25.468Z,7.36
2019-02-18T20:08:58.942Z,7.31
2019-02-18T20:11:32.526Z,7.24
2019-02-18T20:14:06.497Z,7.17
2019-02-18T20:16:39.930Z,7.15
2019-02-18T20:19:13.358Z,7.15
2019-02-18T20:21:46.830Z,7.05
2019-02-18T20:24:20.360Z,7.05
2019-02-18T20:26:53.859Z,7.04
2019-02-18T20:29:27.432Z,6.99
2019-02-18T20:32:00.824Z,6.99
2019-02-18T20:34:34.371Z,6.95
2019-02-18T20:37:08.354Z,6.90
2019-02-18T20:39:41.887Z,6.82
2019-02-18T20:42:17.019Z,6.73
2019-02-18T20:44:50.744Z,6.70
2019-02-18T20:47:24.122Z,6.68
2019-02-18T20:49:57.783Z,6.62
2019-02-18T20:52:31.298Z,6.61
2019-02-18T20:55:06.097Z,6.61
2019-02-18T20:57:40.066Z,6.63
2019-02-18T21:00:20.118Z,6.58
2019-02-18T21:02:53.609Z,6.50
2019-02-18T21:05:27.141Z,6.43
2019-02-18T21:08:01.202Z,6.35
2019-02-18T21:10:34.702Z,6.35
2019-02-18T21:13:08.283Z,6.33
2019-02-18T21:15:41.839Z,6.34
2019-02-18T21:18:15.737Z,6.34
2019-02-18T21:20:51.193Z,6.41
2019-02-18T21:23:24.608Z,6.47
2019-02-18T21:25:58.035Z,6.47
2019-02-18T21:28:31.636Z,6.38
2019-02-18T21:31:05.174Z,6.31
2019-02-18T21:33:39.654Z,6.16
2019-02-18T21:36:13.225Z,6.13
2019-02-18T21:38:46.641Z,6.14
2019-02-18T21:41:20.089Z,6.16
2019-02-18T21:43:53.647Z,6.20
2019-02-18T21:46:27.188Z,6.26
2019-02-18T21:49:00.697Z,6.30
2019-02-18T21:51:34.788Z,6.34
2019-02-18T21:54:08.229Z,6.43
2019-02-18T21:56:41.808Z,6.49
2019-02-18T21:59:15.233Z,6.56
2019-02-18T22:01:48.620Z,6.66
2019-02-18T22:04:23.640Z,6.74
2019-02-18T22:06:57.211Z,6.81
2019-02-18T22:09:30.650Z,6.86
2019-02-18T22:12:04.134Z,6.94
2019-02-18T22:14:37.852Z,6.97
2019-02-18T22:17:11.447Z,7.00
2019-02-18T22:19:44.904Z,7.02
2019-02-18T22:22:18.449Z,7.04
2019-02-18T22:24:51.928Z,7.09
2019-02-18T22:27:25.499Z,7.09
2019-02-18T22:29:58.920Z,7.12
2019-02-18T22:32:32.451Z,7.12
2019-02-18T22:35:06.804Z,7.15
2019-02-18T22:37:40.638Z,7.16
2019-02-18T22:40:14.687Z,7.14
2019-02-18T22:42:48.149Z,7.17
2019-02-18T22:45:21.692Z,7.21
2019-02-18T22:47:55.174Z,7.26
2019-02-18T22:50:28.660Z,7.32
2019-02-18T22:53:02.181Z,7.35
2019-02-18T22:55:35.806Z,7.37
2019-02-18T22:58:09.249Z,7.40
2019-02-18T23:00:52.761Z,7.46
2019-02-18T23:03:26.567Z,7.46
2019-02-18T23:06:00.060Z,7.54
2019-02-18T23:08:33.506Z,7.57
2019-02-18T23:11:07.444Z,7.60
2019-02-18T23:13:40.970Z,7.66
2019-02-18T23:16:14.450Z,7.68
2019-02-18T23:18:47.961Z,7.76
2019-02-18T23:21:21.533Z,7.76
2019-02-18T23:23:54.959Z,7.82
2019-02-18T23:26:28.460Z,7.82
2019-02-18T23:29:01.942Z,7.85
2019-02-18T23:31:35.588Z,7.85
2019-02-18T23:34:09.601Z,7.83
2019-02-18T23:36:43.063Z,7.79
2019-02-18T23:39:16.500Z,7.76
2019-02-18T23:41:50.080Z,7.76
2019-02-18T23:44:23.503Z,7.74
2019-02-18T23:46:57.039Z,7.63
2019-02-18T23:49:30.488Z,7.66
2019-02-18T23:52:04.079Z,7.63
2019-02-18T23:54:37.588Z,7.58
2019-02-18T23:57:11.120Z,7.58
2019-02-18T23:59:44.617Z,7.48
